Bezoek onze andere website:

Template documentation
and downloads

And another site


METAR rapporten vliegvelden

   
EBBR - Brussels International Airport, Belgium
Afstand tot: W 14 km
Gewijzigd: 25-06-2018 09:20
Grotendeels bewolkt  
Grotendeels bewolkt  
   Wind: NO 5.6 km/h
Wind: NO 5.6 km/h
Temperatuur: 15°C
Dauwpunt: 11°C
Vochtigheid: 77%
Barometer: 1025 hPa
Bewolking: Grotendeels bewolkt
Zicht: meer dan 10 km
Bewolking: Gedeeltelijk bewolkt 1200 ft,
Grotendeels bewolkt 1500 ft
EBBR 250720Z 05003KT 360V080 9999 SCT012 BKN015 15/11 Q1025 NOSIG
EBBE - Beauvechain (Bevekom), Belgium
Afstand tot: ZZO 17 km
Gewijzigd: 25-06-2018 08:55
Grotendeels bewolkt  
Grotendeels bewolkt  
   Wind: Noorden 9.3 km/h
Wind: Noorden 9.3 km/h
Temperatuur: 14°C
Dauwpunt: 12°C
Vochtigheid: 88%
Barometer: 1025 hPa
Bewolking: Grotendeels bewolkt
Zicht: meer dan 10 km
Bewolking: Gedeeltelijk bewolkt 1200 ft,
Grotendeels bewolkt 1500 ft
EBBE 250655Z 36005KT 9999 SCT012 BKN015 14/12 Q1025 GRN WHT TEMPO GRN
EBDT - Schaffen, Belgium
Afstand tot: ONO 29 km
Gewijzigd: 25-06-2018 08:55
Grotendeels bewolkt  
Grotendeels bewolkt  
   Wind: Noorden 11.1 km/h
Wind: Noorden 11.1 km/h
Temperatuur: 15°C
Dauwpunt: 12°C
Vochtigheid: 82%
Barometer: 1025 hPa
Bewolking: Grotendeels bewolkt
Zicht: meer dan 10 km
Bewolking: Licht bewolkt 1200 ft,
Grotendeels bewolkt 1400 ft,
Grotendeels bewolkt 1700 ft
EBDT 250655Z 35006KT 9999 FEW012 BKN014 BKN017 15/12 Q1025 GRN GRN BECMG WHT
EBAW - Antwerp/Deurne, Belgium
Afstand tot: NNW 38 km
Gewijzigd: 25-06-2018 09:20
Grotendeels bewolkt  
Grotendeels bewolkt  
   Wind: Noorden 9.3 km/h
Wind: Noorden 9.3 km/h
Temperatuur: 17°C
Dauwpunt: 13°C
Vochtigheid: 77%
Barometer: 1025 hPa
Bewolking: Grotendeels bewolkt
Zicht: meer dan 10 km
Bewolking: Grotendeels bewolkt 1600 ft
EBAW 250720Z 01005KT 320V060 9999 BKN016 17/13 Q1025 NOSIG
EBCI - Charleroi/Gosselies, Belgium
Afstand tot: ZZW 51 km
Gewijzigd: 25-06-2018 09:20
Grotendeels bewolkt  
Grotendeels bewolkt  
   Wind: NNO 13 km/h
Wind: NNO 13 km/h
Temperatuur: 14°C
Dauwpunt: 11°C
Vochtigheid: 82%
Barometer: 1025 hPa
Bewolking: Grotendeels bewolkt
Zicht: meer dan 10 km
Bewolking: Licht bewolkt 1000 ft,
Grotendeels bewolkt 1400 ft
EBCI 250720Z 02007KT 9999 FEW010 BKN014 14/11 Q1025 TEMPO BKN009
EBLG - Bierset/Liege, Belgium
Afstand tot: OZO 60 km
Gewijzigd: 25-06-2018 09:20
Grotendeels bewolkt  
Grotendeels bewolkt  
   Wind: Noorden 9.3 km/h
Wind: Noorden 9.3 km/h
Temperatuur: 14°C
Dauwpunt: 12°C
Vochtigheid: 88%
Barometer: 1025 hPa
Bewolking: Grotendeels bewolkt
Zicht: 7 km
Bewolking: Grotendeels bewolkt 800 ft,
Grotendeels bewolkt 1200 ft
EBLG 250720Z 35005KT 320V020 7000 BKN008 BKN012 14/12 Q1025 NOSIG

Script ontwikkeld door  Saratoga-weather.org Aangepast voor de template door  Weerstation Leuven

U vindt ons ook hier:

Het Weer Aktueel

WeatherCloud

Weather Underground